sensor_id;sensor_type;location;lat;lon;timestamp;P1;durP1;ratioP1;P2;durP2;ratioP2
10517;SDS011;5307;42.548;22.968;2022-08-23T00:02:04;26.48;;;15.63;;
10517;SDS011;5307;42.548;22.968;2022-08-23T00:04:33;26.63;;;15.43;;
10517;SDS011;5307;42.548;22.968;2022-08-23T00:07:02;26.00;;;15.90;;
10517;SDS011;5307;42.548;22.968;2022-08-23T00:09:29;25.30;;;16.42;;
10517;SDS011;5307;42.548;22.968;2022-08-23T00:12:02;28.60;;;16.08;;
10517;SDS011;5307;42.548;22.968;2022-08-23T00:14:33;26.02;;;16.40;;
10517;SDS011;5307;42.548;22.968;2022-08-23T00:17:04;27.00;;;16.38;;
10517;SDS011;5307;42.548;22.968;2022-08-23T00:19:33;22.67;;;15.73;;
10517;SDS011;5307;42.548;22.968;2022-08-23T00:22:00;22.55;;;15.88;;
10517;SDS011;5307;42.548;22.968;2022-08-23T00:24:29;28.33;;;16.08;;
10517;SDS011;5307;42.548;22.968;2022-08-23T00:26:58;26.83;;;16.60;;
10517;SDS011;5307;42.548;22.968;2022-08-23T00:29:30;24.75;;;16.17;;
10517;SDS011;5307;42.548;22.968;2022-08-23T00:31:58;29.35;;;17.13;;
10517;SDS011;5307;42.548;22.968;2022-08-23T00:34:27;22.08;;;15.25;;
10517;SDS011;5307;42.548;22.968;2022-08-23T00:36:54;20.55;;;15.38;;
10517;SDS011;5307;42.548;22.968;2022-08-23T00:39:21;22.70;;;15.68;;
10517;SDS011;5307;42.548;22.968;2022-08-23T00:41:48;23.65;;;15.45;;
10517;SDS011;5307;42.548;22.968;2022-08-23T00:44:17;23.45;;;14.98;;
10517;SDS011;5307;42.548;22.968;2022-08-23T00:47:06;24.92;;;15.57;;
10517;SDS011;5307;42.548;22.968;2022-08-23T00:50:04;25.08;;;15.80;;
10517;SDS011;5307;42.548;22.968;2022-08-23T00:52:39;24.52;;;15.95;;
10517;SDS011;5307;42.548;22.968;2022-08-23T00:55:13;24.05;;;16.40;;
10517;SDS011;5307;42.548;22.968;2022-08-23T00:57:41;24.38;;;16.17;;
10517;SDS011;5307;42.548;22.968;2022-08-23T01:00:09;22.65;;;15.05;;
10517;SDS011;5307;42.548;22.968;2022-08-23T01:02:37;22.50;;;14.55;;
10517;SDS011;5307;42.548;22.968;2022-08-23T01:05:06;24.10;;;15.82;;
10517;SDS011;5307;42.548;22.968;2022-08-23T01:07:36;21.63;;;15.02;;
10517;SDS011;5307;42.548;22.968;2022-08-23T01:10:12;20.10;;;15.35;;
10517;SDS011;5307;42.548;22.968;2022-08-23T01:12:47;20.70;;;13.77;;
10517;SDS011;5307;42.548;22.968;2022-08-23T01:15:22;22.80;;;14.48;;
10517;SDS011;5307;42.548;22.968;2022-08-23T01:17:53;24.48;;;15.52;;
10517;SDS011;5307;42.548;22.968;2022-08-23T01:20:38;20.98;;;15.75;;
10517;SDS011;5307;42.548;22.968;2022-08-23T01:23:22;21.40;;;14.18;;
10517;SDS011;5307;42.548;22.968;2022-08-23T01:25:53;21.25;;;14.50;;
10517;SDS011;5307;42.548;22.968;2022-08-23T01:28:21;20.13;;;15.77;;
10517;SDS011;5307;42.548;22.968;2022-08-23T01:30:48;18.77;;;13.80;;
10517;SDS011;5307;42.548;22.968;2022-08-23T01:33:15;21.10;;;14.65;;
10517;SDS011;5307;42.548;22.968;2022-08-23T01:35:46;23.27;;;15.50;;
10517;SDS011;5307;42.548;22.968;2022-08-23T01:38:17;24.67;;;14.88;;
10517;SDS011;5307;42.548;22.968;2022-08-23T01:40:45;26.33;;;16.63;;
10517;SDS011;5307;42.548;22.968;2022-08-23T01:43:16;21.05;;;15.57;;
10517;SDS011;5307;42.548;22.968;2022-08-23T01:45:45;24.50;;;15.80;;
10517;SDS011;5307;42.548;22.968;2022-08-23T01:48:13;24.52;;;16.73;;
10517;SDS011;5307;42.548;22.968;2022-08-23T01:50:40;30.67;;;17.75;;
10517;SDS011;5307;42.548;22.968;2022-08-23T01:53:07;28.20;;;16.52;;
10517;SDS011;5307;42.548;22.968;2022-08-23T01:55:34;24.77;;;16.73;;
10517;SDS011;5307;42.548;22.968;2022-08-23T01:58:04;26.77;;;16.33;;
10517;SDS011;5307;42.548;22.968;2022-08-23T02:00:33;25.70;;;17.88;;
10517;SDS011;5307;42.548;22.968;2022-08-23T02:03:01;27.08;;;17.38;;
10517;SDS011;5307;42.548;22.968;2022-08-23T02:05:29;23.23;;;16.77;;
10517;SDS011;5307;42.548;22.968;2022-08-23T02:07:56;25.05;;;17.02;;
10517;SDS011;5307;42.548;22.968;2022-08-23T02:10:44;29.90;;;17.92;;
10517;SDS011;5307;42.548;22.968;2022-08-23T02:13:12;31.33;;;20.25;;
10517;SDS011;5307;42.548;22.968;2022-08-23T02:15:40;27.30;;;19.20;;
10517;SDS011;5307;42.548;22.968;2022-08-23T02:18:08;35.40;;;20.42;;
10517;SDS011;5307;42.548;22.968;2022-08-23T02:20:36;31.70;;;19.13;;
10517;SDS011;5307;42.548;22.968;2022-08-23T02:23:04;30.70;;;19.73;;
10517;SDS011;5307;42.548;22.968;2022-08-23T02:25:31;30.38;;;19.70;;
10517;SDS011;5307;42.548;22.968;2022-08-23T02:27:58;34.85;;;20.50;;
10517;SDS011;5307;42.548;22.968;2022-08-23T02:30:29;33.92;;;19.83;;
10517;SDS011;5307;42.548;22.968;2022-08-23T02:32:56;36.08;;;20.20;;
10517;SDS011;5307;42.548;22.968;2022-08-23T02:35:23;37.92;;;20.25;;
10517;SDS011;5307;42.548;22.968;2022-08-23T02:37:50;33.38;;;21.08;;
10517;SDS011;5307;42.548;22.968;2022-08-23T02:40:17;34.15;;;20.67;;
10517;SDS011;5307;42.548;22.968;2022-08-23T02:42:46;38.42;;;22.13;;
10517;SDS011;5307;42.548;22.968;2022-08-23T02:45:14;33.60;;;21.23;;
10517;SDS011;5307;42.548;22.968;2022-08-23T02:47:42;32.58;;;21.20;;
10517;SDS011;5307;42.548;22.968;2022-08-23T02:50:10;34.45;;;20.80;;
10517;SDS011;5307;42.548;22.968;2022-08-23T02:52:37;36.13;;;20.85;;
10517;SDS011;5307;42.548;22.968;2022-08-23T02:55:04;30.45;;;20.50;;
10517;SDS011;5307;42.548;22.968;2022-08-23T02:57:32;34.20;;;20.52;;
10517;SDS011;5307;42.548;22.968;2022-08-23T02:59:59;33.03;;;21.45;;
10517;SDS011;5307;42.548;22.968;2022-08-23T03:02:26;39.15;;;21.25;;
10517;SDS011;5307;42.548;22.968;2022-08-23T03:04:54;31.23;;;20.85;;
10517;SDS011;5307;42.548;22.968;2022-08-23T03:07:22;33.13;;;19.15;;
10517;SDS011;5307;42.548;22.968;2022-08-23T03:09:49;35.58;;;20.05;;
10517;SDS011;5307;42.548;22.968;2022-08-23T03:12:15;31.75;;;18.65;;
10517;SDS011;5307;42.548;22.968;2022-08-23T03:14:42;35.70;;;20.35;;
10517;SDS011;5307;42.548;22.968;2022-08-23T03:17:09;32.38;;;20.35;;
10517;SDS011;5307;42.548;22.968;2022-08-23T03:19:36;32.53;;;20.02;;
10517;SDS011;5307;42.548;22.968;2022-08-23T03:22:04;28.95;;;19.17;;
10517;SDS011;5307;42.548;22.968;2022-08-23T03:24:31;36.15;;;22.08;;
10517;SDS011;5307;42.548;22.968;2022-08-23T03:26:58;33.67;;;21.17;;
10517;SDS011;5307;42.548;22.968;2022-08-23T03:29:25;39.88;;;22.48;;
10517;SDS011;5307;42.548;22.968;2022-08-23T03:31:51;35.78;;;22.02;;
10517;SDS011;5307;42.548;22.968;2022-08-23T03:34:18;39.08;;;21.83;;
10517;SDS011;5307;42.548;22.968;2022-08-23T03:36:45;38.97;;;23.38;;
10517;SDS011;5307;42.548;22.968;2022-08-23T03:39:13;38.95;;;22.75;;
10517;SDS011;5307;42.548;22.968;2022-08-23T03:41:40;34.63;;;21.38;;
10517;SDS011;5307;42.548;22.968;2022-08-23T03:44:07;37.25;;;22.67;;
10517;SDS011;5307;42.548;22.968;2022-08-23T03:46:34;46.72;;;23.67;;
10517;SDS011;5307;42.548;22.968;2022-08-23T03:49:01;41.20;;;22.80;;
10517;SDS011;5307;42.548;22.968;2022-08-23T03:51:30;42.50;;;23.70;;
10517;SDS011;5307;42.548;22.968;2022-08-23T03:53:58;40.38;;;22.13;;
10517;SDS011;5307;42.548;22.968;2022-08-23T03:56:28;40.70;;;23.85;;
10517;SDS011;5307;42.548;22.968;2022-08-23T03:58:57;36.22;;;22.52;;
10517;SDS011;5307;42.548;22.968;2022-08-23T04:01:27;40.13;;;23.08;;
10517;SDS011;5307;42.548;22.968;2022-08-23T04:03:54;39.50;;;23.05;;
10517;SDS011;5307;42.548;22.968;2022-08-23T04:06:24;37.47;;;22.38;;
10517;SDS011;5307;42.548;22.968;2022-08-23T04:08:51;38.03;;;21.73;;
10517;SDS011;5307;42.548;22.968;2022-08-23T04:11:19;38.10;;;21.88;;
10517;SDS011;5307;42.548;22.968;2022-08-23T04:13:48;31.60;;;20.20;;
10517;SDS011;5307;42.548;22.968;2022-08-23T04:16:14;32.63;;;20.75;;
10517;SDS011;5307;42.548;22.968;2022-08-23T04:18:43;30.23;;;19.77;;
10517;SDS011;5307;42.548;22.968;2022-08-23T04:21:11;29.45;;;18.58;;
10517;SDS011;5307;42.548;22.968;2022-08-23T04:23:41;28.73;;;19.63;;
10517;SDS011;5307;42.548;22.968;2022-08-23T04:26:09;29.00;;;18.45;;
10517;SDS011;5307;42.548;22.968;2022-08-23T04:28:36;28.38;;;18.73;;
10517;SDS011;5307;42.548;22.968;2022-08-23T04:31:05;25.83;;;18.10;;
10517;SDS011;5307;42.548;22.968;2022-08-23T04:33:32;25.35;;;16.35;;
10517;SDS011;5307;42.548;22.968;2022-08-23T04:36:00;30.63;;;17.38;;
10517;SDS011;5307;42.548;22.968;2022-08-23T04:38:27;21.77;;;16.40;;
10517;SDS011;5307;42.548;22.968;2022-08-23T04:40:54;27.40;;;17.67;;
10517;SDS011;5307;42.548;22.968;2022-08-23T04:43:39;24.65;;;16.67;;
10517;SDS011;5307;42.548;22.968;2022-08-23T04:46:09;23.90;;;16.63;;
10517;SDS011;5307;42.548;22.968;2022-08-23T04:48:38;25.48;;;16.77;;
10517;SDS011;5307;42.548;22.968;2022-08-23T04:51:05;29.70;;;18.98;;
10517;SDS011;5307;42.548;22.968;2022-08-23T04:53:32;42.03;;;24.75;;
10517;SDS011;5307;42.548;22.968;2022-08-23T04:56:00;38.35;;;22.25;;
10517;SDS011;5307;42.548;22.968;2022-08-23T04:58:28;32.20;;;21.25;;
10517;SDS011;5307;42.548;22.968;2022-08-23T05:00:56;42.45;;;23.35;;
10517;SDS011;5307;42.548;22.968;2022-08-23T05:03:25;33.35;;;22.10;;
10517;SDS011;5307;42.548;22.968;2022-08-23T05:05:54;34.83;;;22.48;;
10517;SDS011;5307;42.548;22.968;2022-08-23T05:08:24;39.47;;;23.52;;
10517;SDS011;5307;42.548;22.968;2022-08-23T05:10:51;34.45;;;22.35;;
10517;SDS011;5307;42.548;22.968;2022-08-23T05:13:19;36.60;;;22.80;;
10517;SDS011;5307;42.548;22.968;2022-08-23T05:15:48;38.20;;;25.80;;
10517;SDS011;5307;42.548;22.968;2022-08-23T05:18:16;37.13;;;23.73;;
10517;SDS011;5307;42.548;22.968;2022-08-23T05:20:45;40.40;;;23.95;;
10517;SDS011;5307;42.548;22.968;2022-08-23T05:23:12;35.38;;;23.73;;
10517;SDS011;5307;42.548;22.968;2022-08-23T05:25:39;38.10;;;24.23;;
10517;SDS011;5307;42.548;22.968;2022-08-23T05:28:15;34.28;;;22.58;;
10517;SDS011;5307;42.548;22.968;2022-08-23T05:30:52;32.60;;;21.58;;
10517;SDS011;5307;42.548;22.968;2022-08-23T05:33:20;32.25;;;21.70;;
10517;SDS011;5307;42.548;22.968;2022-08-23T05:35:49;32.03;;;21.77;;
10517;SDS011;5307;42.548;22.968;2022-08-23T05:38:16;30.65;;;20.98;;
10517;SDS011;5307;42.548;22.968;2022-08-23T05:40:44;29.30;;;19.85;;
10517;SDS011;5307;42.548;22.968;2022-08-23T05:43:14;28.92;;;20.45;;
10517;SDS011;5307;42.548;22.968;2022-08-23T05:45:41;33.80;;;21.65;;
10517;SDS011;5307;42.548;22.968;2022-08-23T05:48:08;32.45;;;22.75;;
10517;SDS011;5307;42.548;22.968;2022-08-23T05:50:34;33.17;;;21.58;;
10517;SDS011;5307;42.548;22.968;2022-08-23T05:53:03;34.53;;;21.48;;
10517;SDS011;5307;42.548;22.968;2022-08-23T05:55:30;31.65;;;20.95;;
10517;SDS011;5307;42.548;22.968;2022-08-23T05:57:57;28.77;;;20.20;;
10517;SDS011;5307;42.548;22.968;2022-08-23T06:00:23;28.48;;;19.88;;
10517;SDS011;5307;42.548;22.968;2022-08-23T06:02:51;28.98;;;20.33;;
10517;SDS011;5307;42.548;22.968;2022-08-23T06:05:19;31.55;;;20.98;;
10517;SDS011;5307;42.548;22.968;2022-08-23T06:07:46;33.22;;;20.75;;
10517;SDS011;5307;42.548;22.968;2022-08-23T06:10:14;34.20;;;23.35;;
10517;SDS011;5307;42.548;22.968;2022-08-23T06:12:41;40.92;;;24.55;;
10517;SDS011;5307;42.548;22.968;2022-08-23T06:15:09;38.25;;;24.45;;
10517;SDS011;5307;42.548;22.968;2022-08-23T06:17:36;34.75;;;23.67;;
10517;SDS011;5307;42.548;22.968;2022-08-23T06:20:03;39.60;;;23.42;;
10517;SDS011;5307;42.548;22.968;2022-08-23T06:22:32;31.42;;;21.48;;
10517;SDS011;5307;42.548;22.968;2022-08-23T06:24:59;34.42;;;22.98;;
10517;SDS011;5307;42.548;22.968;2022-08-23T06:27:27;34.60;;;21.48;;
10517;SDS011;5307;42.548;22.968;2022-08-23T06:29:54;34.17;;;23.08;;
10517;SDS011;5307;42.548;22.968;2022-08-23T06:32:21;36.63;;;23.30;;
10517;SDS011;5307;42.548;22.968;2022-08-23T06:34:47;35.90;;;24.05;;
10517;SDS011;5307;42.548;22.968;2022-08-23T06:37:14;32.72;;;23.77;;
10517;SDS011;5307;42.548;22.968;2022-08-23T06:39:41;32.05;;;21.95;;
10517;SDS011;5307;42.548;22.968;2022-08-23T06:42:09;42.08;;;23.25;;
10517;SDS011;5307;42.548;22.968;2022-08-23T06:44:39;28.48;;;19.55;;
10517;SDS011;5307;42.548;22.968;2022-08-23T06:47:06;21.40;;;16.55;;
10517;SDS011;5307;42.548;22.968;2022-08-23T06:49:33;24.42;;;18.40;;
10517;SDS011;5307;42.548;22.968;2022-08-23T06:52:00;26.45;;;18.90;;
10517;SDS011;5307;42.548;22.968;2022-08-23T06:54:30;31.48;;;17.88;;
10517;SDS011;5307;42.548;22.968;2022-08-23T06:56:59;20.73;;;16.10;;
10517;SDS011;5307;42.548;22.968;2022-08-23T06:59:27;22.88;;;16.17;;
10517;SDS011;5307;42.548;22.968;2022-08-23T07:01:57;24.75;;;16.83;;
10517;SDS011;5307;42.548;22.968;2022-08-23T07:04:27;21.35;;;17.02;;
10517;SDS011;5307;42.548;22.968;2022-08-23T07:06:56;24.75;;;17.25;;
10517;SDS011;5307;42.548;22.968;2022-08-23T07:09:25;19.58;;;14.63;;
10517;SDS011;5307;42.548;22.968;2022-08-23T07:11:52;23.13;;;16.30;;
10517;SDS011;5307;42.548;22.968;2022-08-23T07:14:20;20.20;;;17.23;;
10517;SDS011;5307;42.548;22.968;2022-08-23T07:16:49;22.42;;;16.05;;
10517;SDS011;5307;42.548;22.968;2022-08-23T07:19:20;24.38;;;15.77;;
10517;SDS011;5307;42.548;22.968;2022-08-23T07:21:48;17.15;;;13.88;;
10517;SDS011;5307;42.548;22.968;2022-08-23T07:24:15;19.63;;;13.57;;
10517;SDS011;5307;42.548;22.968;2022-08-23T07:26:43;26.42;;;20.05;;
10517;SDS011;5307;42.548;22.968;2022-08-23T07:29:11;32.08;;;21.30;;
10517;SDS011;5307;42.548;22.968;2022-08-23T07:31:40;24.23;;;19.05;;
10517;SDS011;5307;42.548;22.968;2022-08-23T07:34:09;30.42;;;19.60;;
10517;SDS011;5307;42.548;22.968;2022-08-23T07:36:39;25.92;;;18.38;;
10517;SDS011;5307;42.548;22.968;2022-08-23T07:39:08;27.00;;;19.05;;
10517;SDS011;5307;42.548;22.968;2022-08-23T07:41:36;29.85;;;17.77;;
10517;SDS011;5307;42.548;22.968;2022-08-23T07:44:03;28.23;;;15.20;;
10517;SDS011;5307;42.548;22.968;2022-08-23T07:46:33;25.15;;;15.98;;
10517;SDS011;5307;42.548;22.968;2022-08-23T07:49:00;21.48;;;16.63;;
10517;SDS011;5307;42.548;22.968;2022-08-23T07:51:30;25.77;;;17.13;;
10517;SDS011;5307;42.548;22.968;2022-08-23T07:54:01;23.35;;;16.55;;
10517;SDS011;5307;42.548;22.968;2022-08-23T07:56:29;24.88;;;16.08;;
10517;SDS011;5307;42.548;22.968;2022-08-23T07:58:56;22.23;;;16.95;;
10517;SDS011;5307;42.548;22.968;2022-08-23T08:01:24;35.55;;;17.08;;
10517;SDS011;5307;42.548;22.968;2022-08-23T08:03:53;24.92;;;17.98;;
10517;SDS011;5307;42.548;22.968;2022-08-23T08:06:23;24.95;;;16.83;;
10517;SDS011;5307;42.548;22.968;2022-08-23T08:08:52;15.70;;;12.02;;
10517;SDS011;5307;42.548;22.968;2022-08-23T08:11:21;18.77;;;11.93;;
10517;SDS011;5307;42.548;22.968;2022-08-23T08:13:49;18.88;;;12.95;;
10517;SDS011;5307;42.548;22.968;2022-08-23T08:16:21;20.90;;;13.90;;
10517;SDS011;5307;42.548;22.968;2022-08-23T08:18:49;14.75;;;12.32;;
10517;SDS011;5307;42.548;22.968;2022-08-23T08:21:16;21.27;;;13.63;;
10517;SDS011;5307;42.548;22.968;2022-08-23T08:23:43;18.80;;;12.05;;
10517;SDS011;5307;42.548;22.968;2022-08-23T08:26:11;15.52;;;9.85;;
10517;SDS011;5307;42.548;22.968;2022-08-23T08:28:41;16.02;;;11.80;;
10517;SDS011;5307;42.548;22.968;2022-08-23T08:31:08;15.23;;;10.45;;
10517;SDS011;5307;42.548;22.968;2022-08-23T08:33:36;9.07;;;7.78;;
10517;SDS011;5307;42.548;22.968;2022-08-23T08:36:03;12.20;;;9.13;;
10517;SDS011;5307;42.548;22.968;2022-08-23T08:41:57;19.15;;;12.73;;
10517;SDS011;5307;42.548;22.968;2022-08-23T08:44:52;23.35;;;13.18;;
10517;SDS011;5307;42.548;22.968;2022-08-23T08:47:23;15.48;;;13.27;;
10517;SDS011;5307;42.548;22.968;2022-08-23T08:50:06;20.45;;;12.25;;
10517;SDS011;5307;42.548;22.968;2022-08-23T08:52:44;17.13;;;11.80;;
10517;SDS011;5307;42.548;22.968;2022-08-23T08:55:16;15.15;;;11.73;;
10517;SDS011;5307;42.548;22.968;2022-08-23T08:57:50;19.73;;;11.80;;
10517;SDS011;5307;42.548;22.968;2022-08-23T09:00:21;18.90;;;11.65;;
10517;SDS011;5307;42.548;22.968;2022-08-23T09:02:50;12.73;;;11.05;;
10517;SDS011;5307;42.548;22.968;2022-08-23T09:05:20;14.70;;;11.65;;
10517;SDS011;5307;42.548;22.968;2022-08-23T09:07:54;12.40;;;10.02;;
10517;SDS011;5307;42.548;22.968;2022-08-23T09:10:45;15.50;;;10.32;;
10517;SDS011;5307;42.548;22.968;2022-08-23T09:13:28;13.70;;;10.57;;
10517;SDS011;5307;42.548;22.968;2022-08-23T09:16:15;19.35;;;10.77;;
10517;SDS011;5307;42.548;22.968;2022-08-23T09:18:53;14.45;;;11.73;;
10517;SDS011;5307;42.548;22.968;2022-08-23T09:21:21;18.20;;;11.85;;
10517;SDS011;5307;42.548;22.968;2022-08-23T09:23:49;18.17;;;10.73;;
10517;SDS011;5307;42.548;22.968;2022-08-23T09:26:17;12.35;;;9.20;;
10517;SDS011;5307;42.548;22.968;2022-08-23T09:28:47;14.43;;;8.90;;
10517;SDS011;5307;42.548;22.968;2022-08-23T09:34:07;11.27;;;7.32;;
10517;SDS011;5307;42.548;22.968;2022-08-23T09:36:36;8.45;;;6.03;;
10517;SDS011;5307;42.548;22.968;2022-08-23T09:39:04;8.95;;;6.75;;
10517;SDS011;5307;42.548;22.968;2022-08-23T09:41:34;17.38;;;5.60;;
10517;SDS011;5307;42.548;22.968;2022-08-23T09:44:02;6.40;;;5.20;;
10517;SDS011;5307;42.548;22.968;2022-08-23T09:46:32;6.50;;;5.45;;
10517;SDS011;5307;42.548;22.968;2022-08-23T09:49:20;8.10;;;7.10;;
10517;SDS011;5307;42.548;22.968;2022-08-23T09:51:49;8.43;;;6.55;;
10517;SDS011;5307;42.548;22.968;2022-08-23T09:54:20;9.55;;;6.68;;
10517;SDS011;5307;42.548;22.968;2022-08-23T09:56:52;11.80;;;6.80;;
10517;SDS011;5307;42.548;22.968;2022-08-23T09:59:28;7.43;;;5.97;;
10517;SDS011;5307;42.548;22.968;2022-08-23T10:02:04;7.90;;;5.97;;
10517;SDS011;5307;42.548;22.968;2022-08-23T10:04:42;12.45;;;6.25;;
10517;SDS011;5307;42.548;22.968;2022-08-23T10:07:20;6.07;;;5.35;;
10517;SDS011;5307;42.548;22.968;2022-08-23T10:09:51;6.32;;;4.50;;
10517;SDS011;5307;42.548;22.968;2022-08-23T10:12:18;4.63;;;4.20;;
10517;SDS011;5307;42.548;22.968;2022-08-23T10:14:45;5.75;;;3.63;;
10517;SDS011;5307;42.548;22.968;2022-08-23T10:17:13;3.45;;;2.88;;
10517;SDS011;5307;42.548;22.968;2022-08-23T10:19:53;8.18;;;4.00;;
10517;SDS011;5307;42.548;22.968;2022-08-23T10:22:32;4.07;;;3.30;;
10517;SDS011;5307;42.548;22.968;2022-08-23T10:25:05;3.35;;;2.83;;
10517;SDS011;5307;42.548;22.968;2022-08-23T10:27:42;7.25;;;3.67;;
10517;SDS011;5307;42.548;22.968;2022-08-23T10:30:32;4.32;;;3.67;;
10517;SDS011;5307;42.548;22.968;2022-08-23T10:33:07;4.43;;;3.97;;
10517;SDS011;5307;42.548;22.968;2022-08-23T10:35:44;6.65;;;4.00;;
10517;SDS011;5307;42.548;22.968;2022-08-23T10:38:27;4.75;;;4.03;;
10517;SDS011;5307;42.548;22.968;2022-08-23T10:41:02;6.50;;;4.18;;
10517;SDS011;5307;42.548;22.968;2022-08-23T10:43:41;6.45;;;4.22;;
10517;SDS011;5307;42.548;22.968;2022-08-23T10:46:15;7.25;;;3.75;;
10517;SDS011;5307;42.548;22.968;2022-08-23T10:48:47;4.20;;;3.80;;
10517;SDS011;5307;42.548;22.968;2022-08-23T10:51:20;4.78;;;4.28;;
10517;SDS011;5307;42.548;22.968;2022-08-23T10:53:52;5.63;;;5.03;;
10517;SDS011;5307;42.548;22.968;2022-08-23T10:56:24;6.47;;;4.85;;
10517;SDS011;5307;42.548;22.968;2022-08-23T10:58:53;4.82;;;4.15;;
10517;SDS011;5307;42.548;22.968;2022-08-23T11:01:23;5.57;;;4.20;;
10517;SDS011;5307;42.548;22.968;2022-08-23T11:03:58;7.38;;;3.97;;
10517;SDS011;5307;42.548;22.968;2022-08-23T11:06:42;5.32;;;4.30;;
10517;SDS011;5307;42.548;22.968;2022-08-23T11:09:30;6.10;;;4.03;;
10517;SDS011;5307;42.548;22.968;2022-08-23T11:12:19;5.00;;;4.18;;
10517;SDS011;5307;42.548;22.968;2022-08-23T11:14:57;4.82;;;4.32;;
10517;SDS011;5307;42.548;22.968;2022-08-23T11:17:53;6.70;;;3.78;;
10517;SDS011;5307;42.548;22.968;2022-08-23T11:29:34;3.92;;;3.42;;
10517;SDS011;5307;42.548;22.968;2022-08-23T11:38:04;4.15;;;3.58;;
10517;SDS011;5307;42.548;22.968;2022-08-23T11:40:35;3.75;;;3.45;;
10517;SDS011;5307;42.548;22.968;2022-08-23T11:43:06;4.22;;;3.58;;
10517;SDS011;5307;42.548;22.968;2022-08-23T11:45:40;4.13;;;3.70;;
10517;SDS011;5307;42.548;22.968;2022-08-23T11:48:11;3.95;;;3.53;;
10517;SDS011;5307;42.548;22.968;2022-08-23T11:53:38;4.63;;;3.38;;
10517;SDS011;5307;42.548;22.968;2022-08-23T11:56:19;4.57;;;3.50;;
10517;SDS011;5307;42.548;22.968;2022-08-23T12:04:56;5.72;;;3.63;;
10517;SDS011;5307;42.548;22.968;2022-08-23T12:10:21;5.28;;;4.20;;
10517;SDS011;5307;42.548;22.968;2022-08-23T12:16:07;5.50;;;4.32;;
10517;SDS011;5307;42.548;22.968;2022-08-23T12:18:36;7.15;;;3.50;;
10517;SDS011;5307;42.548;22.968;2022-08-23T12:21:08;4.28;;;3.58;;
10517;SDS011;5307;42.548;22.968;2022-08-23T12:23:44;5.60;;;4.25;;
10517;SDS011;5307;42.548;22.968;2022-08-23T12:26:18;7.25;;;5.30;;
10517;SDS011;5307;42.548;22.968;2022-08-23T12:28:51;8.38;;;5.18;;
10517;SDS011;5307;42.548;22.968;2022-08-23T12:31:27;8.13;;;5.03;;
10517;SDS011;5307;42.548;22.968;2022-08-23T12:34:05;6.65;;;4.68;;
10517;SDS011;5307;42.548;22.968;2022-08-23T12:36:44;4.85;;;4.28;;
10517;SDS011;5307;42.548;22.968;2022-08-23T12:39:22;4.45;;;3.88;;
10517;SDS011;5307;42.548;22.968;2022-08-23T12:41:55;4.82;;;4.07;;
10517;SDS011;5307;42.548;22.968;2022-08-23T12:44:28;4.38;;;3.97;;
10517;SDS011;5307;42.548;22.968;2022-08-23T12:46:57;6.75;;;4.70;;
10517;SDS011;5307;42.548;22.968;2022-08-23T12:49:37;5.28;;;4.40;;
10517;SDS011;5307;42.548;22.968;2022-08-23T12:52:05;7.60;;;4.15;;
10517;SDS011;5307;42.548;22.968;2022-08-23T12:54:35;5.00;;;4.47;;
10517;SDS011;5307;42.548;22.968;2022-08-23T12:57:05;5.90;;;5.22;;
10517;SDS011;5307;42.548;22.968;2022-08-23T12:59:37;6.28;;;5.50;;
10517;SDS011;5307;42.548;22.968;2022-08-23T13:02:09;5.78;;;5.13;;
10517;SDS011;5307;42.548;22.968;2022-08-23T13:04:41;6.60;;;5.95;;
10517;SDS011;5307;42.548;22.968;2022-08-23T13:07:09;9.18;;;5.70;;
10517;SDS011;5307;42.548;22.968;2022-08-23T13:09:40;9.50;;;6.15;;
10517;SDS011;5307;42.548;22.968;2022-08-23T13:12:08;9.80;;;7.20;;
10517;SDS011;5307;42.548;22.968;2022-08-23T13:14:41;5.57;;;5.05;;
10517;SDS011;5307;42.548;22.968;2022-08-23T13:17:15;5.50;;;5.00;;
10517;SDS011;5307;42.548;22.968;2022-08-23T13:19:45;6.88;;;4.22;;
10517;SDS011;5307;42.548;22.968;2022-08-23T13:22:17;4.43;;;3.88;;
10517;SDS011;5307;42.548;22.968;2022-08-23T13:24:57;4.15;;;3.42;;
10517;SDS011;5307;42.548;22.968;2022-08-23T13:27:26;6.57;;;2.92;;
10517;SDS011;5307;42.548;22.968;2022-08-23T13:29:56;5.90;;;3.33;;
10517;SDS011;5307;42.548;22.968;2022-08-23T13:32:31;4.53;;;3.58;;
10517;SDS011;5307;42.548;22.968;2022-08-23T13:37:58;3.78;;;3.40;;
10517;SDS011;5307;42.548;22.968;2022-08-23T13:40:28;3.90;;;3.50;;
10517;SDS011;5307;42.548;22.968;2022-08-23T13:42:58;5.50;;;3.45;;
10517;SDS011;5307;42.548;22.968;2022-08-23T13:45:27;5.60;;;3.25;;
10517;SDS011;5307;42.548;22.968;2022-08-23T13:47:59;6.35;;;4.10;;
10517;SDS011;5307;42.548;22.968;2022-08-23T13:50:33;5.15;;;3.88;;
10517;SDS011;5307;42.548;22.968;2022-08-23T13:53:01;5.95;;;4.05;;
10517;SDS011;5307;42.548;22.968;2022-08-23T13:55:29;6.55;;;4.50;;
10517;SDS011;5307;42.548;22.968;2022-08-23T13:57:59;9.25;;;5.82;;
10517;SDS011;5307;42.548;22.968;2022-08-23T14:00:26;6.53;;;4.80;;
10517;SDS011;5307;42.548;22.968;2022-08-23T14:02:53;5.75;;;4.80;;
10517;SDS011;5307;42.548;22.968;2022-08-23T14:05:21;6.00;;;4.28;;
10517;SDS011;5307;42.548;22.968;2022-08-23T14:07:49;5.13;;;4.63;;
10517;SDS011;5307;42.548;22.968;2022-08-23T14:10:17;6.38;;;4.60;;
10517;SDS011;5307;42.548;22.968;2022-08-23T14:12:44;8.13;;;5.10;;
10517;SDS011;5307;42.548;22.968;2022-08-23T14:15:14;6.32;;;4.30;;
10517;SDS011;5307;42.548;22.968;2022-08-23T14:17:42;10.00;;;5.00;;
10517;SDS011;5307;42.548;22.968;2022-08-23T14:20:13;7.75;;;4.65;;
10517;SDS011;5307;42.548;22.968;2022-08-23T14:22:42;5.38;;;4.88;;
10517;SDS011;5307;42.548;22.968;2022-08-23T14:25:09;11.30;;;4.43;;
10517;SDS011;5307;42.548;22.968;2022-08-23T14:27:37;8.20;;;4.78;;
10517;SDS011;5307;42.548;22.968;2022-08-23T14:30:05;6.15;;;4.97;;
10517;SDS011;5307;42.548;22.968;2022-08-23T14:32:35;7.10;;;5.28;;
10517;SDS011;5307;42.548;22.968;2022-08-23T14:35:05;6.80;;;4.90;;
10517;SDS011;5307;42.548;22.968;2022-08-23T14:37:32;6.60;;;5.07;;
10517;SDS011;5307;42.548;22.968;2022-08-23T14:40:00;7.60;;;4.65;;
10517;SDS011;5307;42.548;22.968;2022-08-23T14:42:27;7.50;;;4.85;;
10517;SDS011;5307;42.548;22.968;2022-08-23T14:44:55;12.25;;;5.18;;
10517;SDS011;5307;42.548;22.968;2022-08-23T14:47:22;9.35;;;5.05;;
10517;SDS011;5307;42.548;22.968;2022-08-23T14:49:49;10.75;;;5.68;;
10517;SDS011;5307;42.548;22.968;2022-08-23T14:52:16;7.25;;;6.00;;
10517;SDS011;5307;42.548;22.968;2022-08-23T14:54:42;10.23;;;6.78;;
10517;SDS011;5307;42.548;22.968;2022-08-23T14:57:11;16.05;;;7.07;;
10517;SDS011;5307;42.548;22.968;2022-08-23T14:59:38;13.82;;;7.05;;
10517;SDS011;5307;42.548;22.968;2022-08-23T15:02:05;9.82;;;5.90;;
10517;SDS011;5307;42.548;22.968;2022-08-23T15:04:36;11.05;;;6.63;;
10517;SDS011;5307;42.548;22.968;2022-08-23T15:07:04;7.57;;;6.82;;
10517;SDS011;5307;42.548;22.968;2022-08-23T15:09:31;8.65;;;7.03;;
10517;SDS011;5307;42.548;22.968;2022-08-23T15:11:58;11.85;;;6.93;;
10517;SDS011;5307;42.548;22.968;2022-08-23T15:14:26;9.95;;;7.38;;
10517;SDS011;5307;42.548;22.968;2022-08-23T15:16:53;9.70;;;7.47;;
10517;SDS011;5307;42.548;22.968;2022-08-23T15:19:20;10.98;;;7.78;;
10517;SDS011;5307;42.548;22.968;2022-08-23T15:21:47;10.82;;;7.78;;
10517;SDS011;5307;42.548;22.968;2022-08-23T15:24:14;12.43;;;7.60;;
10517;SDS011;5307;42.548;22.968;2022-08-23T15:26:40;48.13;;;20.40;;
10517;SDS011;5307;42.548;22.968;2022-08-23T15:29:08;9.50;;;7.70;;